sensor_id;sensor_type;location;lat;lon;timestamp;temperature;humidity
16744;DHT22;71724;-33.900;151.182;2023-07-28T00:02:12;17.00;59.30
16744;DHT22;71724;-33.900;151.182;2023-07-28T00:04:40;17.20;58.70
16744;DHT22;71724;-33.900;151.182;2023-07-28T00:07:08;17.40;58.30
16744;DHT22;71724;-33.900;151.182;2023-07-28T00:09:36;17.60;56.80
16744;DHT22;71724;-33.900;151.182;2023-07-28T00:12:03;17.70;57.00
16744;DHT22;71724;-33.900;151.182;2023-07-28T00:14:31;17.90;57.00
16744;DHT22;71724;-33.900;151.182;2023-07-28T00:16:58;18.10;55.80
16744;DHT22;71724;-33.900;151.182;2023-07-28T00:19:25;18.30;55.30
16744;DHT22;71724;-33.900;151.182;2023-07-28T00:21:56;18.60;53.50
16744;DHT22;71724;-33.900;151.182;2023-07-28T00:24:24;18.80;54.00
16744;DHT22;71724;-33.900;151.182;2023-07-28T00:26:51;18.90;53.50
16744;DHT22;71724;-33.900;151.182;2023-07-28T00:29:18;19.10;53.70
16744;DHT22;71724;-33.900;151.182;2023-07-28T00:31:46;19.20;52.30
16744;DHT22;71724;-33.900;151.182;2023-07-28T00:34:13;19.40;51.30
16744;DHT22;71724;-33.900;151.182;2023-07-28T00:36:41;19.60;51.30
16744;DHT22;71724;-33.900;151.182;2023-07-28T00:39:08;19.80;51.00
16744;DHT22;71724;-33.900;151.182;2023-07-28T00:41:35;20.00;50.50
16744;DHT22;71724;-33.900;151.182;2023-07-28T00:44:03;20.20;50.30
16744;DHT22;71724;-33.900;151.182;2023-07-28T00:46:31;20.30;49.60
16744;DHT22;71724;-33.900;151.182;2023-07-28T00:48:58;20.50;48.50
16744;DHT22;71724;-33.900;151.182;2023-07-28T00:51:26;20.60;48.60
16744;DHT22;71724;-33.900;151.182;2023-07-28T00:53:56;20.80;47.30
16744;DHT22;71724;-33.900;151.182;2023-07-28T00:56:25;20.80;48.10
16744;DHT22;71724;-33.900;151.182;2023-07-28T00:58:53;20.90;48.20
16744;DHT22;71724;-33.900;151.182;2023-07-28T01:01:21;21.10;48.00
16744;DHT22;71724;-33.900;151.182;2023-07-28T01:03:50;21.20;48.20
16744;DHT22;71724;-33.900;151.182;2023-07-28T01:09:14;21.30;46.40
16744;DHT22;71724;-33.900;151.182;2023-07-28T01:11:56;21.40;45.90
16744;DHT22;71724;-33.900;151.182;2023-07-28T01:14:26;21.30;46.70
16744;DHT22;71724;-33.900;151.182;2023-07-28T01:16:53;21.30;46.90
16744;DHT22;71724;-33.900;151.182;2023-07-28T01:19:21;21.40;46.60
16744;DHT22;71724;-33.900;151.182;2023-07-28T01:27:12;21.70;46.60
16744;DHT22;71724;-33.900;151.182;2023-07-28T01:29:40;21.80;45.30
16744;DHT22;71724;-33.900;151.182;2023-07-28T01:32:10;21.90;45.30
16744;DHT22;71724;-33.900;151.182;2023-07-28T01:34:37;22.10;45.30
16744;DHT22;71724;-33.900;151.182;2023-07-28T01:37:05;22.00;46.00
16744;DHT22;71724;-33.900;151.182;2023-07-28T01:39:32;22.20;46.80
16744;DHT22;71724;-33.900;151.182;2023-07-28T01:42:00;22.10;46.60
16744;DHT22;71724;-33.900;151.182;2023-07-28T01:44:27;22.30;45.10
16744;DHT22;71724;-33.900;151.182;2023-07-28T01:46:55;22.30;45.20
16744;DHT22;71724;-33.900;151.182;2023-07-28T01:49:22;22.40;46.00
16744;DHT22;71724;-33.900;151.182;2023-07-28T01:51:50;22.50;45.10
16744;DHT22;71724;-33.900;151.182;2023-07-28T01:54:18;22.60;44.90
16744;DHT22;71724;-33.900;151.182;2023-07-28T01:56:45;22.70;44.60
16744;DHT22;71724;-33.900;151.182;2023-07-28T01:59:12;22.80;44.40
16744;DHT22;71724;-33.900;151.182;2023-07-28T02:01:40;22.80;44.00
16744;DHT22;71724;-33.900;151.182;2023-07-28T02:04:08;22.80;43.00
16744;DHT22;71724;-33.900;151.182;2023-07-28T02:06:35;22.70;42.40
16744;DHT22;71724;-33.900;151.182;2023-07-28T02:09:03;22.70;43.80
16744;DHT22;71724;-33.900;151.182;2023-07-28T02:11:30;22.60;43.70
16744;DHT22;71724;-33.900;151.182;2023-07-28T02:13:57;22.50;43.20
16744;DHT22;71724;-33.900;151.182;2023-07-28T02:16:25;22.50;43.50
16744;DHT22;71724;-33.900;151.182;2023-07-28T02:18:54;22.40;42.50
16744;DHT22;71724;-33.900;151.182;2023-07-28T02:21:22;22.40;43.30
16744;DHT22;71724;-33.900;151.182;2023-07-28T02:23:49;22.30;43.10
16744;DHT22;71724;-33.900;151.182;2023-07-28T02:26:16;22.30;42.80
16744;DHT22;71724;-33.900;151.182;2023-07-28T02:28:44;22.30;43.90
16744;DHT22;71724;-33.900;151.182;2023-07-28T02:31:11;22.30;43.10
16744;DHT22;71724;-33.900;151.182;2023-07-28T02:33:38;22.30;43.10
16744;DHT22;71724;-33.900;151.182;2023-07-28T02:36:06;22.40;43.50
16744;DHT22;71724;-33.900;151.182;2023-07-28T02:38:33;22.40;43.60
16744;DHT22;71724;-33.900;151.182;2023-07-28T02:41:01;22.50;42.90
16744;DHT22;71724;-33.900;151.182;2023-07-28T02:43:30;22.50;43.00
16744;DHT22;71724;-33.900;151.182;2023-07-28T02:46:00;22.40;43.00
16744;DHT22;71724;-33.900;151.182;2023-07-28T02:48:27;22.40;43.70
16744;DHT22;71724;-33.900;151.182;2023-07-28T02:50:55;22.40;43.30
16744;DHT22;71724;-33.900;151.182;2023-07-28T02:53:22;22.50;43.30
16744;DHT22;71724;-33.900;151.182;2023-07-28T02:55:50;22.50;43.00
16744;DHT22;71724;-33.900;151.182;2023-07-28T02:58:17;22.50;43.10
16744;DHT22;71724;-33.900;151.182;2023-07-28T03:00:44;22.50;42.90
16744;DHT22;71724;-33.900;151.182;2023-07-28T03:03:13;22.60;42.90
16744;DHT22;71724;-33.900;151.182;2023-07-28T03:05:40;22.50;43.30
16744;DHT22;71724;-33.900;151.182;2023-07-28T03:08:08;22.60;43.00
16744;DHT22;71724;-33.900;151.182;2023-07-28T03:10:35;22.60;43.40
16744;DHT22;71724;-33.900;151.182;2023-07-28T03:13:03;22.70;42.10
16744;DHT22;71724;-33.900;151.182;2023-07-28T03:15:30;22.60;42.40
16744;DHT22;71724;-33.900;151.182;2023-07-28T03:17:57;22.60;42.50
16744;DHT22;71724;-33.900;151.182;2023-07-28T03:20:24;22.60;42.70
16744;DHT22;71724;-33.900;151.182;2023-07-28T03:22:52;22.50;42.70
16744;DHT22;71724;-33.900;151.182;2023-07-28T03:25:21;22.60;43.30
16744;DHT22;71724;-33.900;151.182;2023-07-28T03:27:48;22.70;42.60
16744;DHT22;71724;-33.900;151.182;2023-07-28T03:30:16;22.80;43.80
16744;DHT22;71724;-33.900;151.182;2023-07-28T03:32:43;22.80;43.10
16744;DHT22;71724;-33.900;151.182;2023-07-28T03:35:11;22.80;42.90
16744;DHT22;71724;-33.900;151.182;2023-07-28T03:37:38;22.80;43.00
16744;DHT22;71724;-33.900;151.182;2023-07-28T03:40:06;22.80;42.80
16744;DHT22;71724;-33.900;151.182;2023-07-28T03:42:34;22.80;43.00
16744;DHT22;71724;-33.900;151.182;2023-07-28T03:45:01;22.70;43.40
16744;DHT22;71724;-33.900;151.182;2023-07-28T03:47:29;22.70;41.20
16744;DHT22;71724;-33.900;151.182;2023-07-28T03:49:56;22.70;40.10
16744;DHT22;71724;-33.900;151.182;2023-07-28T03:52:23;22.70;41.80
16744;DHT22;71724;-33.900;151.182;2023-07-28T03:54:51;22.70;40.10
16744;DHT22;71724;-33.900;151.182;2023-07-28T03:57:18;22.60;40.90
16744;DHT22;71724;-33.900;151.182;2023-07-28T03:59:46;22.60;41.10
16744;DHT22;71724;-33.900;151.182;2023-07-28T04:02:13;22.60;40.10
16744;DHT22;71724;-33.900;151.182;2023-07-28T04:04:40;22.50;40.60
16744;DHT22;71724;-33.900;151.182;2023-07-28T04:07:08;22.40;40.20
16744;DHT22;71724;-33.900;151.182;2023-07-28T04:09:35;22.40;40.80
16744;DHT22;71724;-33.900;151.182;2023-07-28T04:12:02;22.40;40.50
16744;DHT22;71724;-33.900;151.182;2023-07-28T04:14:30;22.40;41.50
16744;DHT22;71724;-33.900;151.182;2023-07-28T04:16:57;22.40;40.60
16744;DHT22;71724;-33.900;151.182;2023-07-28T04:19:25;22.40;41.40
16744;DHT22;71724;-33.900;151.182;2023-07-28T04:21:52;22.40;40.70
16744;DHT22;71724;-33.900;151.182;2023-07-28T04:24:19;22.40;40.90
16744;DHT22;71724;-33.900;151.182;2023-07-28T04:26:47;22.40;40.10
16744;DHT22;71724;-33.900;151.182;2023-07-28T04:29:17;22.40;40.80
16744;DHT22;71724;-33.900;151.182;2023-07-28T04:31:44;22.40;41.30
16744;DHT22;71724;-33.900;151.182;2023-07-28T04:34:12;22.60;40.60
16744;DHT22;71724;-33.900;151.182;2023-07-28T04:36:39;22.70;40.90
16744;DHT22;71724;-33.900;151.182;2023-07-28T04:39:07;22.80;40.60
16744;DHT22;71724;-33.900;151.182;2023-07-28T04:41:34;22.90;40.90
16744;DHT22;71724;-33.900;151.182;2023-07-28T04:44:01;23.00;40.50
16744;DHT22;71724;-33.900;151.182;2023-07-28T04:46:29;23.20;40.30
16744;DHT22;71724;-33.900;151.182;2023-07-28T04:48:57;23.20;40.10
16744;DHT22;71724;-33.900;151.182;2023-07-28T04:51:25;23.20;40.30
16744;DHT22;71724;-33.900;151.182;2023-07-28T04:53:53;23.10;39.90
16744;DHT22;71724;-33.900;151.182;2023-07-28T04:56:20;23.00;39.30
16744;DHT22;71724;-33.900;151.182;2023-07-28T04:58:47;22.90;39.60
16744;DHT22;71724;-33.900;151.182;2023-07-28T05:01:15;22.80;39.70
16744;DHT22;71724;-33.900;151.182;2023-07-28T05:03:42;22.80;40.70
16744;DHT22;71724;-33.900;151.182;2023-07-28T05:06:09;22.80;40.60
16744;DHT22;71724;-33.900;151.182;2023-07-28T05:08:37;22.70;40.90
16744;DHT22;71724;-33.900;151.182;2023-07-28T05:11:05;22.70;41.00
16744;DHT22;71724;-33.900;151.182;2023-07-28T05:13:32;22.70;41.30
16744;DHT22;71724;-33.900;151.182;2023-07-28T05:15:59;22.60;41.00
16744;DHT22;71724;-33.900;151.182;2023-07-28T05:18:30;22.60;41.30
16744;DHT22;71724;-33.900;151.182;2023-07-28T05:20:57;22.50;41.20
16744;DHT22;71724;-33.900;151.182;2023-07-28T05:23:25;22.40;40.90
16744;DHT22;71724;-33.900;151.182;2023-07-28T05:25:52;22.30;41.40
16744;DHT22;71724;-33.900;151.182;2023-07-28T05:28:19;22.30;42.00
16744;DHT22;71724;-33.900;151.182;2023-07-28T05:30:47;22.30;41.80
16744;DHT22;71724;-33.900;151.182;2023-07-28T05:33:14;22.20;41.90
16744;DHT22;71724;-33.900;151.182;2023-07-28T05:35:42;22.20;41.10
16744;DHT22;71724;-33.900;151.182;2023-07-28T05:38:09;22.20;41.90
16744;DHT22;71724;-33.900;151.182;2023-07-28T05:40:36;22.10;41.90
16744;DHT22;71724;-33.900;151.182;2023-07-28T05:43:04;22.10;41.40
16744;DHT22;71724;-33.900;151.182;2023-07-28T05:45:31;22.00;41.60
16744;DHT22;71724;-33.900;151.182;2023-07-28T05:47:58;22.10;41.40
16744;DHT22;71724;-33.900;151.182;2023-07-28T05:50:26;22.10;41.60
16744;DHT22;71724;-33.900;151.182;2023-07-28T05:52:53;22.10;41.60
16744;DHT22;71724;-33.900;151.182;2023-07-28T05:55:21;22.10;42.40
16744;DHT22;71724;-33.900;151.182;2023-07-28T05:57:48;22.00;42.00
16744;DHT22;71724;-33.900;151.182;2023-07-28T06:00:16;22.00;42.80
16744;DHT22;71724;-33.900;151.182;2023-07-28T06:02:43;22.00;42.80
16744;DHT22;71724;-33.900;151.182;2023-07-28T06:05:11;21.90;42.90
16744;DHT22;71724;-33.900;151.182;2023-07-28T06:07:38;21.90;42.50
16744;DHT22;71724;-33.900;151.182;2023-07-28T06:10:06;21.80;42.50
16744;DHT22;71724;-33.900;151.182;2023-07-28T06:12:34;21.80;42.90
16744;DHT22;71724;-33.900;151.182;2023-07-28T06:15:03;21.80;43.10
16744;DHT22;71724;-33.900;151.182;2023-07-28T06:17:30;21.70;42.80
16744;DHT22;71724;-33.900;151.182;2023-07-28T06:19:58;21.70;43.20
16744;DHT22;71724;-33.900;151.182;2023-07-28T06:22:27;21.60;42.80
16744;DHT22;71724;-33.900;151.182;2023-07-28T06:24:54;21.50;43.20
16744;DHT22;71724;-33.900;151.182;2023-07-28T06:27:22;21.50;43.70
16744;DHT22;71724;-33.900;151.182;2023-07-28T06:29:50;21.50;44.10
16744;DHT22;71724;-33.900;151.182;2023-07-28T06:32:17;21.40;44.20
16744;DHT22;71724;-33.900;151.182;2023-07-28T06:34:46;21.30;44.50
16744;DHT22;71724;-33.900;151.182;2023-07-28T06:37:14;21.30;44.70
16744;DHT22;71724;-33.900;151.182;2023-07-28T06:39:41;21.30;44.30
16744;DHT22;71724;-33.900;151.182;2023-07-28T06:42:08;21.20;44.50
16744;DHT22;71724;-33.900;151.182;2023-07-28T06:44:36;21.20;44.60
16744;DHT22;71724;-33.900;151.182;2023-07-28T06:47:03;21.20;44.90
16744;DHT22;71724;-33.900;151.182;2023-07-28T06:49:31;21.20;44.80
16744;DHT22;71724;-33.900;151.182;2023-07-28T06:51:58;21.20;45.30
16744;DHT22;71724;-33.900;151.182;2023-07-28T06:54:25;21.10;45.30
16744;DHT22;71724;-33.900;151.182;2023-07-28T06:56:54;21.10;46.00
16744;DHT22;71724;-33.900;151.182;2023-07-28T06:59:21;21.00;46.10
16744;DHT22;71724;-33.900;151.182;2023-07-28T07:01:49;21.00;46.20
16744;DHT22;71724;-33.900;151.182;2023-07-28T07:04:16;20.90;46.20
16744;DHT22;71724;-33.900;151.182;2023-07-28T07:06:44;20.80;46.20
16744;DHT22;71724;-33.900;151.182;2023-07-28T07:09:12;20.80;46.00
16744;DHT22;71724;-33.900;151.182;2023-07-28T07:11:42;20.80;46.20
16744;DHT22;71724;-33.900;151.182;2023-07-28T07:14:09;20.70;46.50
16744;DHT22;71724;-33.900;151.182;2023-07-28T07:16:36;20.70;46.60
16744;DHT22;71724;-33.900;151.182;2023-07-28T07:19:04;20.70;46.60
16744;DHT22;71724;-33.900;151.182;2023-07-28T07:21:32;20.60;46.90
16744;DHT22;71724;-33.900;151.182;2023-07-28T07:23:59;20.60;47.20
16744;DHT22;71724;-33.900;151.182;2023-07-28T07:26:26;20.50;47.60
16744;DHT22;71724;-33.900;151.182;2023-07-28T07:28:54;20.50;47.80
16744;DHT22;71724;-33.900;151.182;2023-07-28T07:31:21;20.50;47.80
16744;DHT22;71724;-33.900;151.182;2023-07-28T07:33:49;20.40;47.90
16744;DHT22;71724;-33.900;151.182;2023-07-28T07:36:17;20.30;48.10
16744;DHT22;71724;-33.900;151.182;2023-07-28T07:38:45;20.30;47.90
16744;DHT22;71724;-33.900;151.182;2023-07-28T07:41:13;20.30;48.10
16744;DHT22;71724;-33.900;151.182;2023-07-28T07:43:47;20.30;48.50
16744;DHT22;71724;-33.900;151.182;2023-07-28T07:46:15;20.30;48.20
16744;DHT22;71724;-33.900;151.182;2023-07-28T07:48:43;20.20;48.30
16744;DHT22;71724;-33.900;151.182;2023-07-28T07:51:10;20.20;48.40
16744;DHT22;71724;-33.900;151.182;2023-07-28T07:53:38;20.10;48.60
16744;DHT22;71724;-33.900;151.182;2023-07-28T07:56:06;20.10;48.90
16744;DHT22;71724;-33.900;151.182;2023-07-28T07:58:35;20.10;48.70
16744;DHT22;71724;-33.900;151.182;2023-07-28T08:01:03;20.10;49.00
16744;DHT22;71724;-33.900;151.182;2023-07-28T08:03:30;20.00;49.10
16744;DHT22;71724;-33.900;151.182;2023-07-28T08:06:03;20.00;49.50
16744;DHT22;71724;-33.900;151.182;2023-07-28T08:08:30;19.90;50.30
16744;DHT22;71724;-33.900;151.182;2023-07-28T08:10:58;19.80;51.00
16744;DHT22;71724;-33.900;151.182;2023-07-28T08:13:26;19.80;51.00
16744;DHT22;71724;-33.900;151.182;2023-07-28T08:15:55;19.70;52.30
16744;DHT22;71724;-33.900;151.182;2023-07-28T08:18:22;19.70;52.30
16744;DHT22;71724;-33.900;151.182;2023-07-28T08:20:49;19.60;52.30
16744;DHT22;71724;-33.900;151.182;2023-07-28T08:23:17;19.60;52.40
16744;DHT22;71724;-33.900;151.182;2023-07-28T08:25:44;19.50;52.40
16744;DHT22;71724;-33.900;151.182;2023-07-28T08:28:12;19.50;52.30
16744;DHT22;71724;-33.900;151.182;2023-07-28T08:30:39;19.50;52.30
16744;DHT22;71724;-33.900;151.182;2023-07-28T08:33:06;19.40;52.30
16744;DHT22;71724;-33.900;151.182;2023-07-28T08:35:34;19.30;52.60
16744;DHT22;71724;-33.900;151.182;2023-07-28T08:38:01;19.20;52.80
16744;DHT22;71724;-33.900;151.182;2023-07-28T08:40:30;19.20;53.20
16744;DHT22;71724;-33.900;151.182;2023-07-28T08:42:57;19.10;53.20
16744;DHT22;71724;-33.900;151.182;2023-07-28T08:45:24;19.00;53.80
16744;DHT22;71724;-33.900;151.182;2023-07-28T08:47:52;18.90;53.90
16744;DHT22;71724;-33.900;151.182;2023-07-28T08:50:19;18.80;55.80
16744;DHT22;71724;-33.900;151.182;2023-07-28T08:52:48;18.80;56.50
16744;DHT22;71724;-33.900;151.182;2023-07-28T08:55:17;18.80;56.10
16744;DHT22;71724;-33.900;151.182;2023-07-28T08:57:44;18.80;55.90
16744;DHT22;71724;-33.900;151.182;2023-07-28T09:00:13;18.70;55.70
16744;DHT22;71724;-33.900;151.182;2023-07-28T09:02:41;18.70;55.50
16744;DHT22;71724;-33.900;151.182;2023-07-28T09:05:17;18.70;55.40
16744;DHT22;71724;-33.900;151.182;2023-07-28T09:07:46;18.60;55.00
16744;DHT22;71724;-33.900;151.182;2023-07-28T09:10:14;18.60;54.90
16744;DHT22;71724;-33.900;151.182;2023-07-28T09:12:51;18.70;54.50
16744;DHT22;71724;-33.900;151.182;2023-07-28T09:15:18;18.70;54.40
16744;DHT22;71724;-33.900;151.182;2023-07-28T09:17:47;18.60;54.40
16744;DHT22;71724;-33.900;151.182;2023-07-28T09:20:16;18.70;54.40
16744;DHT22;71724;-33.900;151.182;2023-07-28T09:22:45;18.60;54.80
16744;DHT22;71724;-33.900;151.182;2023-07-28T09:25:14;18.60;55.30
16744;DHT22;71724;-33.900;151.182;2023-07-28T09:27:50;18.50;56.10
16744;DHT22;71724;-33.900;151.182;2023-07-28T09:30:17;18.60;55.70
16744;DHT22;71724;-33.900;151.182;2023-07-28T09:32:49;18.60;56.50
16744;DHT22;71724;-33.900;151.182;2023-07-28T09:35:17;18.50;56.00
16744;DHT22;71724;-33.900;151.182;2023-07-28T09:37:47;18.50;56.30
16744;DHT22;71724;-33.900;151.182;2023-07-28T09:40:19;18.50;56.80
16744;DHT22;71724;-33.900;151.182;2023-07-28T09:42:48;18.50;56.40
16744;DHT22;71724;-33.900;151.182;2023-07-28T09:45:19;18.50;56.10
16744;DHT22;71724;-33.900;151.182;2023-07-28T09:47:51;18.50;56.20
16744;DHT22;71724;-33.900;151.182;2023-07-28T09:50:24;18.50;56.70
16744;DHT22;71724;-33.900;151.182;2023-07-28T09:53:00;18.50;57.00
16744;DHT22;71724;-33.900;151.182;2023-07-28T09:55:29;18.40;57.10
16744;DHT22;71724;-33.900;151.182;2023-07-28T09:58:01;18.40;57.20
16744;DHT22;71724;-33.900;151.182;2023-07-28T10:00:31;18.50;57.10
16744;DHT22;71724;-33.900;151.182;2023-07-28T10:02:59;18.40;57.00
16744;DHT22;71724;-33.900;151.182;2023-07-28T10:05:28;18.40;56.80
16744;DHT22;71724;-33.900;151.182;2023-07-28T10:07:56;18.40;56.50
16744;DHT22;71724;-33.900;151.182;2023-07-28T10:10:25;18.40;56.50
16744;DHT22;71724;-33.900;151.182;2023-07-28T10:12:55;18.40;56.60
16744;DHT22;71724;-33.900;151.182;2023-07-28T10:15:29;18.40;57.00
16744;DHT22;71724;-33.900;151.182;2023-07-28T10:17:58;18.40;57.60
16744;DHT22;71724;-33.900;151.182;2023-07-28T10:20:36;18.30;57.30
16744;DHT22;71724;-33.900;151.182;2023-07-28T10:23:22;18.30;57.60
16744;DHT22;71724;-33.900;151.182;2023-07-28T10:25:58;18.30;57.30
16744;DHT22;71724;-33.900;151.182;2023-07-28T10:28:34;18.30;57.00
16744;DHT22;71724;-33.900;151.182;2023-07-28T10:31:10;18.30;58.20
16744;DHT22;71724;-33.900;151.182;2023-07-28T10:33:45;18.30;59.30
16744;DHT22;71724;-33.900;151.182;2023-07-28T10:39:14;18.20;59.10
16744;DHT22;71724;-33.900;151.182;2023-07-28T10:42:07;18.20;59.80
16744;DHT22;71724;-33.900;151.182;2023-07-28T10:44:38;18.20;59.20
16744;DHT22;71724;-33.900;151.182;2023-07-28T10:47:10;18.20;58.60
16744;DHT22;71724;-33.900;151.182;2023-07-28T10:49:39;18.20;58.40
16744;DHT22;71724;-33.900;151.182;2023-07-28T10:52:07;18.10;58.40
16744;DHT22;71724;-33.900;151.182;2023-07-28T10:54:35;18.00;58.50
16744;DHT22;71724;-33.900;151.182;2023-07-28T10:57:03;18.00;58.90
16744;DHT22;71724;-33.900;151.182;2023-07-28T10:59:30;18.00;59.30
16744;DHT22;71724;-33.900;151.182;2023-07-28T11:01:57;18.00;59.20
16744;DHT22;71724;-33.900;151.182;2023-07-28T11:04:25;18.00;59.40
16744;DHT22;71724;-33.900;151.182;2023-07-28T11:06:52;17.90;59.50
16744;DHT22;71724;-33.900;151.182;2023-07-28T11:09:22;17.90;60.10
16744;DHT22;71724;-33.900;151.182;2023-07-28T11:11:50;17.80;60.20
16744;DHT22;71724;-33.900;151.182;2023-07-28T11:14:18;17.80;60.70
16744;DHT22;71724;-33.900;151.182;2023-07-28T11:16:47;17.80;60.80
16744;DHT22;71724;-33.900;151.182;2023-07-28T11:19:14;17.70;61.70
16744;DHT22;71724;-33.900;151.182;2023-07-28T11:21:43;17.70;61.20
16744;DHT22;71724;-33.900;151.182;2023-07-28T11:24:11;17.80;60.20
16744;DHT22;71724;-33.900;151.182;2023-07-28T11:26:39;17.80;60.80
16744;DHT22;71724;-33.900;151.182;2023-07-28T11:29:07;17.80;60.30
16744;DHT22;71724;-33.900;151.182;2023-07-28T11:31:34;17.80;60.00
16744;DHT22;71724;-33.900;151.182;2023-07-28T11:34:02;17.80;59.50
16744;DHT22;71724;-33.900;151.182;2023-07-28T11:36:30;17.80;59.70
16744;DHT22;71724;-33.900;151.182;2023-07-28T11:39:01;17.80;59.30
16744;DHT22;71724;-33.900;151.182;2023-07-28T11:41:33;17.80;59.50
16744;DHT22;71724;-33.900;151.182;2023-07-28T11:44:01;17.80;59.20
16744;DHT22;71724;-33.900;151.182;2023-07-28T11:46:39;17.80;59.00
16744;DHT22;71724;-33.900;151.182;2023-07-28T11:49:13;17.80;58.90
16744;DHT22;71724;-33.900;151.182;2023-07-28T11:51:42;17.80;59.20
16744;DHT22;71724;-33.900;151.182;2023-07-28T11:54:14;17.80;59.70
16744;DHT22;71724;-33.900;151.182;2023-07-28T11:56:46;17.80;59.40
16744;DHT22;71724;-33.900;151.182;2023-07-28T11:59:18;17.80;58.70
16744;DHT22;71724;-33.900;151.182;2023-07-28T12:01:59;17.80;59.20
16744;DHT22;71724;-33.900;151.182;2023-07-28T12:04:28;17.80;59.00
16744;DHT22;71724;-33.900;151.182;2023-07-28T12:07:15;17.80;59.20
16744;DHT22;71724;-33.900;151.182;2023-07-28T12:09:50;17.80;58.40
16744;DHT22;71724;-33.900;151.182;2023-07-28T12:12:45;17.80;59.00
16744;DHT22;71724;-33.900;151.182;2023-07-28T12:15:42;17.80;58.30
16744;DHT22;71724;-33.900;151.182;2023-07-28T12:18:15;17.80;59.70
16744;DHT22;71724;-33.900;151.182;2023-07-28T12:20:47;17.80;59.20
16744;DHT22;71724;-33.900;151.182;2023-07-28T12:23:17;17.80;59.00
16744;DHT22;71724;-33.900;151.182;2023-07-28T12:25:44;17.80;59.90
16744;DHT22;71724;-33.900;151.182;2023-07-28T12:28:12;17.70;59.60
16744;DHT22;71724;-33.900;151.182;2023-07-28T12:30:39;17.70;60.50
16744;DHT22;71724;-33.900;151.182;2023-07-28T12:33:07;17.70;61.20
16744;DHT22;71724;-33.900;151.182;2023-07-28T12:35:35;17.70;60.10
16744;DHT22;71724;-33.900;151.182;2023-07-28T12:38:04;17.70;60.10
16744;DHT22;71724;-33.900;151.182;2023-07-28T12:40:33;17.70;61.40
16744;DHT22;71724;-33.900;151.182;2023-07-28T12:43:02;17.70;60.80
16744;DHT22;71724;-33.900;151.182;2023-07-28T12:45:30;17.70;61.30
16744;DHT22;71724;-33.900;151.182;2023-07-28T12:47:58;17.60;60.70
16744;DHT22;71724;-33.900;151.182;2023-07-28T12:50:25;17.60;60.70
16744;DHT22;71724;-33.900;151.182;2023-07-28T12:52:53;17.60;60.10
16744;DHT22;71724;-33.900;151.182;2023-07-28T12:55:20;17.60;59.90
16744;DHT22;71724;-33.900;151.182;2023-07-28T12:57:48;17.60;60.00
16744;DHT22;71724;-33.900;151.182;2023-07-28T13:00:16;17.60;59.60
16744;DHT22;71724;-33.900;151.182;2023-07-28T13:02:44;17.60;59.20
16744;DHT22;71724;-33.900;151.182;2023-07-28T13:05:13;17.50;59.70
16744;DHT22;71724;-33.900;151.182;2023-07-28T13:07:42;17.60;59.70
16744;DHT22;71724;-33.900;151.182;2023-07-28T13:10:10;17.50;59.90
16744;DHT22;71724;-33.900;151.182;2023-07-28T13:12:38;17.50;59.70
16744;DHT22;71724;-33.900;151.182;2023-07-28T13:15:06;17.50;59.50
16744;DHT22;71724;-33.900;151.182;2023-07-28T13:17:34;17.60;59.30
16744;DHT22;71724;-33.900;151.182;2023-07-28T13:20:02;17.50;59.80
16744;DHT22;71724;-33.900;151.182;2023-07-28T13:22:29;17.60;59.60
16744;DHT22;71724;-33.900;151.182;2023-07-28T13:24:57;17.50;59.60
16744;DHT22;71724;-33.900;151.182;2023-07-28T13:27:24;17.50;60.90
16744;DHT22;71724;-33.900;151.182;2023-07-28T13:29:51;17.50;60.40
16744;DHT22;71724;-33.900;151.182;2023-07-28T13:32:23;17.50;60.40
16744;DHT22;71724;-33.900;151.182;2023-07-28T13:34:51;17.50;59.80
16744;DHT22;71724;-33.900;151.182;2023-07-28T13:37:19;17.50;60.20
16744;DHT22;71724;-33.900;151.182;2023-07-28T13:39:47;17.50;60.10
16744;DHT22;71724;-33.900;151.182;2023-07-28T13:42:14;17.50;60.00
16744;DHT22;71724;-33.900;151.182;2023-07-28T13:44:43;17.50;60.90
16744;DHT22;71724;-33.900;151.182;2023-07-28T13:47:11;17.50;60.90
16744;DHT22;71724;-33.900;151.182;2023-07-28T13:49:38;17.40;60.30
16744;DHT22;71724;-33.900;151.182;2023-07-28T13:52:06;17.30;60.20
16744;DHT22;71724;-33.900;151.182;2023-07-28T13:54:33;17.30;61.10
16744;DHT22;71724;-33.900;151.182;2023-07-28T13:57:01;17.30;61.00
16744;DHT22;71724;-33.900;151.182;2023-07-28T13:59:28;17.20;60.80
16744;DHT22;71724;-33.900;151.182;2023-07-28T14:01:56;17.20;61.30
16744;DHT22;71724;-33.900;151.182;2023-07-28T14:04:24;17.20;61.80
16744;DHT22;71724;-33.900;151.182;2023-07-28T14:06:52;17.20;62.70
16744;DHT22;71724;-33.900;151.182;2023-07-28T14:09:19;17.20;61.70
16744;DHT22;71724;-33.900;151.182;2023-07-28T14:11:49;17.10;61.60
16744;DHT22;71724;-33.900;151.182;2023-07-28T14:14:17;17.00;62.00
16744;DHT22;71724;-33.900;151.182;2023-07-28T14:16:44;17.00;61.70
16744;DHT22;71724;-33.900;151.182;2023-07-28T14:19:11;17.00;61.60
16744;DHT22;71724;-33.900;151.182;2023-07-28T14:21:39;17.00;62.70
16744;DHT22;71724;-33.900;151.182;2023-07-28T14:24:06;16.90;62.40
16744;DHT22;71724;-33.900;151.182;2023-07-28T14:26:34;16.90;63.40
16744;DHT22;71724;-33.900;151.182;2023-07-28T14:29:02;16.90;63.60
16744;DHT22;71724;-33.900;151.182;2023-07-28T14:31:33;16.90;63.50
16744;DHT22;71724;-33.900;151.182;2023-07-28T14:34:01;16.90;63.70
16744;DHT22;71724;-33.900;151.182;2023-07-28T14:36:28;16.80;63.20
16744;DHT22;71724;-33.900;151.182;2023-07-28T14:38:55;16.80;63.20
16744;DHT22;71724;-33.900;151.182;2023-07-28T14:41:23;16.80;63.00
16744;DHT22;71724;-33.900;151.182;2023-07-28T14:43:51;16.70;63.40
16744;DHT22;71724;-33.900;151.182;2023-07-28T14:46:19;16.70;64.10
16744;DHT22;71724;-33.900;151.182;2023-07-28T14:48:49;16.70;63.90
16744;DHT22;71724;-33.900;151.182;2023-07-28T14:51:18;16.70;63.70
16744;DHT22;71724;-33.900;151.182;2023-07-28T14:53:46;16.70;63.70
16744;DHT22;71724;-33.900;151.182;2023-07-28T14:56:15;16.70;64.20
16744;DHT22;71724;-33.900;151.182;2023-07-28T14:58:42;16.70;64.10
16744;DHT22;71724;-33.900;151.182;2023-07-28T15:01:13;16.70;64.20
16744;DHT22;71724;-33.900;151.182;2023-07-28T15:03:40;16.70;63.70
16744;DHT22;71724;-33.900;151.182;2023-07-28T15:06:08;16.60;63.80
16744;DHT22;71724;-33.900;151.182;2023-07-28T15:08:35;16.60;64.40